Terminal Aerodrome Forecast
Issued by NWS North Platte, NE

Home | Current Version | Previous Version | Text Only | Print | Product List | Glossary On
Versions: 1 2 3 4 5 6 7 8 9 10 11 12 13 14 15 16 17 18 19 20 21 22 23 24 25 26 27 28 29 30
000
FTUS43 KLBF 291100
TAFLBF
TAF
KLBF 291132Z 2912/3012 VRB04KT P6SM SCT250
     FM291500 35010KT P6SM SCT250
     FM291800 33011G19KT P6SM SCT250
     FM292200 35010KT P6SM BKN100
     FM300800 VRB06KT P6SM SCT250=

USA.gov is the U.S. government's official web portal to all federal, state and local government web resources and services.